Terminal Aerodrome Forecast
Issued by NWS

Home | Current Version | Previous Version | Text Only | Print | Product List | Glossary On
Versions: 1 2 3 4 5 6 7 8 9 10 11 12 13 14 15 16 17 18 19 20
000
FTUS43 KMQT 220532
TAFIWD
TAF
KIWD 220532Z 2206/2306 20005KT P6SM SKC
     FM221800 16006KT P6SM BKN200
     FM230100 14005KT P6SM OVC060
     FM230400 14007KT 3SM -SN OVC040
     FM230500 13006KT 2SM -SN OVC025=

USA.gov is the U.S. government's official web portal to all federal, state and local government web resources and services.